FCK2FT EDDP-EDPP
Flight info
| Callsign | FCK2FT |
|---|---|
| Flight time | N/A |
| Altitude | 8000 |
| Route | DP532 DCT DP549 DCT DP422 DCT MOKUL |
| Aircraft | BE20/L-SBGRY/S |
Departure
| Time | 2026-05-07 19:09 |
|---|---|
| Airport | Leipzig/Halle Airport (EDDP) |
Arrival
| Time | N/A |
|---|---|
| Airport | EDPP |
| Time | Latitude | Longitude | Altitude | Speed | Heading |
|---|---|---|---|---|---|
| 2026-05-07 19:03 | 51.41894 | 12.21496 | 432 ft | 22 kts | 285° |
| 2026-05-07 19:03 | 51.41923 | 12.21347 | 429 ft | 16 kts | 285° |
| 2026-05-07 19:03 | 51.41962 | 12.21116 | 424 ft | 27 kts | 286° |
| 2026-05-07 19:04 | 51.42068 | 12.20930 | 423 ft | 24 kts | 15° |
| 2026-05-07 19:04 | 51.42247 | 12.21008 | 430 ft | 29 kts | 13° |
| 2026-05-07 19:04 | 51.42451 | 12.21098 | 438 ft | 32 kts | 13° |
| 2026-05-07 19:04 | 51.42681 | 12.21198 | 432 ft | 36 kts | 15° |
| 2026-05-07 19:05 | 51.42883 | 12.21288 | 428 ft | 20 kts | 21° |
| 2026-05-07 19:05 | 51.42956 | 12.21388 | 427 ft | 8 kts | 44° |
| 2026-05-07 19:05 | 51.43008 | 12.21474 | 430 ft | 14 kts | 45° |
| 2026-05-07 19:05 | 51.43023 | 12.21499 | 431 ft | 0 kts | 46° |
| 2026-05-07 19:07 | 51.43046 | 12.21537 | 421 ft | 16 kts | 45° |
| 2026-05-07 19:08 | 51.43127 | 12.21721 | 431 ft | 14 kts | 75° |
| 2026-05-07 19:08 | 51.43134 | 12.21792 | 429 ft | 0 kts | 85° |
| 2026-05-07 19:08 | 51.43138 | 12.21859 | 433 ft | 32 kts | 86° |
| 2026-05-07 19:09 | 51.43174 | 12.22645 | 433 ft | 106 kts | 86° |
| 2026-05-07 19:09 | 51.43241 | 12.24081 | 541 ft | 154 kts | 86° |
| 2026-05-07 19:09 | 51.43312 | 12.25946 | 965 ft | 173 kts | 86° |
| 2026-05-07 19:09 | 51.43682 | 12.27663 | 1744 ft | 168 kts | 43° |
| 2026-05-07 19:10 | 51.44815 | 12.28219 | 2158 ft | 187 kts | 350° |
| 2026-05-07 19:10 | 51.45959 | 12.27091 | 2351 ft | 205 kts | 314° |
| 2026-05-07 19:10 | 51.46932 | 12.25298 | 2429 ft | 220 kts | 309° |
| 2026-05-07 19:10 | 51.47844 | 12.23280 | 2463 ft | 225 kts | 294° |
| 2026-05-07 19:11 | 51.48084 | 12.20808 | 2484 ft | 229 kts | 271° |
| 2026-05-07 19:11 | 51.48076 | 12.18228 | 2493 ft | 233 kts | 268° |
| 2026-05-07 19:11 | 51.48012 | 12.15618 | 2497 ft | 235 kts | 267° |
| 2026-05-07 19:11 | 51.47891 | 12.13028 | 2499 ft | 236 kts | 265° |
| 2026-05-07 19:12 | 51.47732 | 12.10412 | 2500 ft | 231 kts | 264° |
| 2026-05-07 19:12 | 51.47384 | 12.08084 | 2496 ft | 206 kts | 236° |
| 2026-05-07 19:12 | 51.46268 | 12.06869 | 2504 ft | 195 kts | 188° |
| 2026-05-07 19:12 | 51.45019 | 12.07394 | 2509 ft | 189 kts | 139° |
| 2026-05-07 19:13 | 51.44490 | 12.09227 | 2513 ft | 186 kts | 88° |
| 2026-05-07 19:13 | 51.45055 | 12.11035 | 2511 ft | 192 kts | 37° |
| 2026-05-07 19:13 | 51.46340 | 12.11535 | 2516 ft | 199 kts | 348° |
| 2026-05-07 19:13 | 51.47453 | 12.10336 | 2516 ft | 202 kts | 301° |
| 2026-05-07 19:14 | 51.47776 | 12.08174 | 2514 ft | 202 kts | 273° |
| 2026-05-07 19:14 | 51.47777 | 12.05912 | 2506 ft | 204 kts | 268° |
| 2026-05-07 19:14 | 51.47714 | 12.03762 | 2503 ft | 206 kts | 266° |
| 2026-05-07 19:14 | 51.47622 | 12.01448 | 2503 ft | 209 kts | 266° |
| 2026-05-07 19:15 | 51.47520 | 11.99113 | 2503 ft | 210 kts | 266° |
| 2026-05-07 19:15 | 51.47419 | 11.96892 | 2504 ft | 211 kts | 265° |
| 2026-05-07 19:15 | 51.47311 | 11.94547 | 2504 ft | 211 kts | 265° |
| 2026-05-07 19:15 | 51.47201 | 11.92197 | 2505 ft | 211 kts | 265° |
| 2026-05-07 19:16 | 51.47114 | 11.89858 | 2503 ft | 208 kts | 273° |
| 2026-05-07 19:16 | 51.47644 | 11.87960 | 2507 ft | 209 kts | 316° |
| 2026-05-07 19:16 | 51.48958 | 11.87113 | 2512 ft | 209 kts | 2° |
| 2026-05-07 19:16 | 51.50261 | 11.88023 | 2514 ft | 210 kts | 47° |
| 2026-05-07 19:17 | 51.50774 | 11.90156 | 2513 ft | 210 kts | 92° |
| 2026-05-07 19:17 | 51.50190 | 11.92239 | 2512 ft | 210 kts | 138° |
| 2026-05-07 19:17 | 51.48898 | 11.93179 | 2508 ft | 203 kts | 166° |
| 2026-05-07 19:17 | 51.47523 | 11.93656 | 2505 ft | 198 kts | 169° |
| 2026-05-07 19:18 | 51.46243 | 11.94018 | 2496 ft | 175 kts | 171° |
| 2026-05-07 19:18 | 51.45082 | 11.94321 | 2499 ft | 175 kts | 171° |
| 2026-05-07 19:18 | 51.43891 | 11.94623 | 2506 ft | 174 kts | 170° |
| 2026-05-07 19:18 | 51.42894 | 11.95547 | 2510 ft | 170 kts | 124° |
| 2026-05-07 19:19 | 51.42307 | 11.97271 | 2510 ft | 182 kts | 111° |
| 2026-05-07 19:19 | 51.42071 | 11.99242 | 2514 ft | 181 kts | 89° |
| 2026-05-07 19:19 | 51.42175 | 12.01236 | 2510 ft | 178 kts | 85° |
| 2026-05-07 19:19 | 51.42263 | 12.03223 | 2507 ft | 180 kts | 86° |
| 2026-05-07 19:20 | 51.42345 | 12.05234 | 2463 ft | 183 kts | 86° |
| 2026-05-07 19:20 | 51.42443 | 12.07243 | 2208 ft | 177 kts | 85° |
| 2026-05-07 19:20 | 51.42536 | 12.09145 | 1963 ft | 170 kts | 85° |
| 2026-05-07 19:20 | 51.42623 | 12.10999 | 1726 ft | 165 kts | 85° |
| 2026-05-07 19:21 | 51.42713 | 12.12923 | 1507 ft | 179 kts | 85° |
| 2026-05-07 19:21 | 51.42796 | 12.14697 | 1299 ft | 173 kts | 85° |
| 2026-05-07 19:21 | 51.42883 | 12.16557 | 1077 ft | 166 kts | 85° |
| 2026-05-07 19:21 | 51.42969 | 12.18374 | 852 ft | 161 kts | 85° |
| 2026-05-07 19:22 | 51.43051 | 12.20135 | 753 ft | 154 kts | 86° |
| 2026-05-07 19:22 | 51.43102 | 12.21247 | 742 ft | 150 kts | 86° |
| 2026-05-07 19:22 | 51.43374 | 12.23459 | 1180 ft | 156 kts | 50° |
| 2026-05-07 19:22 | 51.44343 | 12.24074 | 1908 ft | 163 kts | 351° |
| 2026-05-07 19:23 | 51.45329 | 12.23025 | 2241 ft | 186 kts | 310° |
| 2026-05-07 19:23 | 51.45905 | 12.21878 | 2348 ft | 203 kts | 307° |
| 2026-05-07 19:23 | 51.47058 | 12.19307 | 2444 ft | 223 kts | 304° |
| 2026-05-07 19:23 | 51.47657 | 12.17902 | 2461 ft | 227 kts | 302° |
| 2026-05-07 19:24 | 51.48090 | 12.15506 | 2479 ft | 228 kts | 273° |
| 2026-05-07 19:24 | 51.48012 | 12.12997 | 2488 ft | 230 kts | 260° |
| 2026-05-07 19:24 | 51.47675 | 12.10464 | 2494 ft | 234 kts | 256° |
| 2026-05-07 19:24 | 51.47273 | 12.07927 | 2499 ft | 236 kts | 255° |
| 2026-05-07 19:25 | 51.46958 | 12.05386 | 2500 ft | 225 kts | 262° |
| 2026-05-07 19:25 | 51.46768 | 12.03064 | 2498 ft | 213 kts | 263° |
| 2026-05-07 19:25 | 51.46470 | 12.00011 | 2496 ft | 202 kts | 245° |
| 2026-05-07 19:25 | 51.45496 | 11.98560 | 2507 ft | 207 kts | 199° |
| 2026-05-07 19:26 | 51.44525 | 11.98423 | 2511 ft | 219 kts | 169° |
| 2026-05-07 19:26 | 51.43214 | 11.99682 | 2520 ft | 229 kts | 127° |
| 2026-05-07 19:26 | 51.42514 | 12.01835 | 2514 ft | 229 kts | 102° |
| 2026-05-07 19:26 | 51.42323 | 12.04373 | 2510 ft | 231 kts | 92° |
| 2026-05-07 19:27 | 51.42393 | 12.06953 | 2260 ft | 231 kts | 84° |
| 2026-05-07 19:27 | 51.42559 | 12.09449 | 1945 ft | 222 kts | 84° |
| 2026-05-07 19:27 | 51.42673 | 12.11826 | 1640 ft | 206 kts | 86° |
| 2026-05-07 19:27 | 51.42765 | 12.14004 | 1364 ft | 194 kts | 86° |
| 2026-05-07 19:28 | 51.42853 | 12.15924 | 1128 ft | 184 kts | 85° |
| 2026-05-07 19:28 | 51.42954 | 12.18019 | 895 ft | 201 kts | 85° |
| 2026-05-07 19:28 | 51.43060 | 12.20257 | 1067 ft | 199 kts | 85° |
| 2026-05-07 19:28 | 51.43173 | 12.22463 | 1460 ft | 206 kts | 82° |
| 2026-05-07 19:29 | 51.43886 | 12.24480 | 1491 ft | 220 kts | 37° |
| 2026-05-07 19:29 | 51.45340 | 12.25200 | 1504 ft | 223 kts | 355° |
| 2026-05-07 19:29 | 51.46687 | 12.24183 | 1506 ft | 215 kts | 314° |
| 2026-05-07 19:29 | 51.47602 | 12.22355 | 1501 ft | 209 kts | 300° |
| 2026-05-07 19:30 | 51.47890 | 12.20116 | 1505 ft | 207 kts | 270° |
| 2026-05-07 19:30 | 51.47822 | 12.17797 | 1505 ft | 209 kts | 265° |
| 2026-05-07 19:30 | 51.47667 | 12.15475 | 1505 ft | 210 kts | 263° |
| 2026-05-07 19:30 | 51.47504 | 12.13145 | 1505 ft | 211 kts | 263° |
| 2026-05-07 19:31 | 51.47347 | 12.10891 | 1798 ft | 197 kts | 263° |
| 2026-05-07 19:31 | 51.47198 | 12.08755 | 2181 ft | 192 kts | 263° |
| 2026-05-07 19:31 | 51.47048 | 12.06600 | 2352 ft | 198 kts | 263° |
| 2026-05-07 19:31 | 51.46893 | 12.04377 | 2433 ft | 201 kts | 263° |
| 2026-05-07 19:32 | 51.46716 | 12.02274 | 2467 ft | 188 kts | 253° |
| 2026-05-07 19:32 | 51.45865 | 12.00746 | 2490 ft | 196 kts | 202° |
| 2026-05-07 19:32 | 51.44491 | 12.00773 | 2507 ft | 208 kts | 155° |
| 2026-05-07 19:32 | 51.43473 | 12.02400 | 2511 ft | 211 kts | 120° |
| 2026-05-07 19:33 | 51.42798 | 12.04508 | 2507 ft | 213 kts | 109° |
| 2026-05-07 19:33 | 51.42543 | 12.06885 | 2272 ft | 223 kts | 96° |
| 2026-05-07 19:33 | 51.42512 | 12.09332 | 1971 ft | 215 kts | 86° |
| 2026-05-07 19:33 | 51.42647 | 12.11640 | 1676 ft | 207 kts | 84° |
| 2026-05-07 19:34 | 51.42768 | 12.13907 | 1386 ft | 202 kts | 85° |
| 2026-05-07 19:34 | 51.42860 | 12.16010 | 1130 ft | 198 kts | 86° |
| 2026-05-07 19:34 | 51.42957 | 12.18194 | 868 ft | 195 kts | 85° |
| 2026-05-07 19:34 | 51.43058 | 12.20336 | 721 ft | 187 kts | 85° |
| 2026-05-07 19:35 | 51.43154 | 12.22342 | 1165 ft | 180 kts | 85° |
| 2026-05-07 19:35 | 51.43375 | 12.24362 | 1454 ft | 192 kts | 61° |
| 2026-05-07 19:35 | 51.44436 | 12.25688 | 1595 ft | 206 kts | 13° |
| 2026-05-07 19:35 | 51.45838 | 12.25381 | 1657 ft | 215 kts | 329° |
| 2026-05-07 19:36 | 51.46908 | 12.23703 | 1682 ft | 218 kts | 309° |
| 2026-05-07 19:36 | 51.47722 | 12.21682 | 1688 ft | 220 kts | 285° |
| 2026-05-07 19:36 | 51.47798 | 12.19247 | 1698 ft | 220 kts | 264° |
| 2026-05-07 19:36 | 51.47605 | 12.16801 | 1700 ft | 223 kts | 263° |
| 2026-05-07 19:37 | 51.47418 | 12.14320 | 1701 ft | 225 kts | 263° |
| 2026-05-07 19:37 | 51.47239 | 12.11859 | 1700 ft | 213 kts | 263° |
| 2026-05-07 19:37 | 51.47077 | 12.09585 | 1698 ft | 198 kts | 263° |
| 2026-05-07 19:37 | 51.46925 | 12.07433 | 1701 ft | 191 kts | 263° |
| 2026-05-07 19:38 | 51.46778 | 12.05347 | 1703 ft | 186 kts | 263° |
| 2026-05-07 19:38 | 51.46633 | 12.03326 | 1705 ft | 183 kts | 262° |
| 2026-05-07 19:38 | 51.46039 | 12.01662 | 1708 ft | 180 kts | 212° |
| 2026-05-07 19:38 | 51.44779 | 12.01388 | 1721 ft | 202 kts | 162° |
| 2026-05-07 19:39 | 51.43659 | 12.02818 | 1725 ft | 213 kts | 125° |
| 2026-05-07 19:39 | 51.42903 | 12.04893 | 1712 ft | 217 kts | 107° |
| 2026-05-07 19:39 | 51.42681 | 12.07168 | 1704 ft | 199 kts | 96° |
| 2026-05-07 19:39 | 51.42575 | 12.09300 | 1696 ft | 182 kts | 93° |
| 2026-05-07 19:40 | 51.42612 | 12.11267 | 1697 ft | 179 kts | 85° |
| 2026-05-07 19:40 | 51.42730 | 12.13323 | 1483 ft | 188 kts | 85° |
| 2026-05-07 19:40 | 51.42828 | 12.15289 | 1240 ft | 185 kts | 85° |
| 2026-05-07 19:40 | 51.42917 | 12.17290 | 987 ft | 178 kts | 86° |
| 2026-05-07 19:41 | 51.43004 | 12.19219 | 741 ft | 169 kts | 85° |
| 2026-05-07 19:41 | 51.43086 | 12.20989 | 717 ft | 149 kts | 85° |
| 2026-05-07 19:41 | 51.43157 | 12.22590 | 684 ft | 143 kts | 86° |
| 2026-05-07 19:41 | 51.43056 | 12.24270 | 1123 ft | 156 kts | 122° |
| 2026-05-07 19:42 | 51.42185 | 12.25229 | 1874 ft | 160 kts | 158° |
| 2026-05-07 19:42 | 51.41456 | 12.25666 | 2133 ft | 179 kts | 161° |
| 2026-05-07 19:42 | 51.40116 | 12.26333 | 2341 ft | 204 kts | 167° |
| 2026-05-07 19:42 | 51.38659 | 12.26768 | 2425 ft | 220 kts | 171° |
| 2026-05-07 19:43 | 51.37134 | 12.26987 | 2455 ft | 212 kts | 189° |
| 2026-05-07 19:43 | 51.36003 | 12.25885 | 2469 ft | 182 kts | 238° |
| 2026-05-07 19:43 | 51.35634 | 12.24143 | 2479 ft | 157 kts | 257° |
| 2026-05-07 19:43 | 51.35481 | 12.22543 | 2483 ft | 145 kts | 263° |
| 2026-05-07 19:44 | 51.35375 | 12.20730 | 2512 ft | 186 kts | 265° |
| 2026-05-07 19:44 | 51.35269 | 12.18502 | 2527 ft | 212 kts | 266° |
| 2026-05-07 19:44 | 51.35170 | 12.16194 | 2512 ft | 206 kts | 266° |
| 2026-05-07 19:44 | 51.35077 | 12.13929 | 2506 ft | 203 kts | 266° |
| 2026-05-07 19:45 | 51.34987 | 12.11688 | 2502 ft | 201 kts | 266° |
| 2026-05-07 19:45 | 51.34900 | 12.09495 | 2502 ft | 200 kts | 266° |
| 2026-05-07 19:45 | 51.34813 | 12.07278 | 2504 ft | 200 kts | 266° |
| 2026-05-07 19:45 | 51.34725 | 12.05061 | 2505 ft | 200 kts | 266° |
| 2026-05-07 19:46 | 51.34638 | 12.02843 | 2506 ft | 200 kts | 266° |
| 2026-05-07 19:46 | 51.34551 | 12.00628 | 2506 ft | 200 kts | 266° |
| 2026-05-07 19:46 | 51.34467 | 11.98504 | 2507 ft | 200 kts | 266° |
| 2026-05-07 19:46 | 51.34380 | 11.96289 | 2507 ft | 200 kts | 266° |
| 2026-05-07 19:47 | 51.34293 | 11.94074 | 2507 ft | 200 kts | 266° |
| 2026-05-07 19:47 | 51.34209 | 11.91860 | 2507 ft | 198 kts | 268° |
| 2026-05-07 19:47 | 51.34628 | 11.89836 | 2508 ft | 200 kts | 313° |
| 2026-05-07 19:47 | 51.35831 | 11.88863 | 2513 ft | 201 kts | 346° |
| 2026-05-07 19:48 | 51.37214 | 11.88604 | 2509 ft | 202 kts | 12° |
| 2026-05-07 19:48 | 51.38372 | 11.89812 | 2514 ft | 202 kts | 48° |
| 2026-05-07 19:48 | 51.39224 | 11.91614 | 2510 ft | 204 kts | 61° |
| 2026-05-07 19:48 | 51.39725 | 11.93749 | 2508 ft | 206 kts | 76° |
| 2026-05-07 19:49 | 51.39961 | 11.96020 | 2507 ft | 207 kts | 83° |
| 2026-05-07 19:49 | 51.40103 | 11.98314 | 2506 ft | 207 kts | 84° |
| 2026-05-07 19:49 | 51.40232 | 12.00614 | 2506 ft | 208 kts | 85° |
| 2026-05-07 19:49 | 51.40337 | 12.02920 | 2506 ft | 208 kts | 85° |
| 2026-05-07 19:50 | 51.40441 | 12.05250 | 2320 ft | 215 kts | 85° |
| 2026-05-07 19:50 | 51.40555 | 12.07644 | 2015 ft | 214 kts | 85° |
| 2026-05-07 19:50 | 51.40666 | 12.09982 | 1723 ft | 213 kts | 85° |
| 2026-05-07 19:50 | 51.40776 | 12.12338 | 1435 ft | 211 kts | 85° |
| 2026-05-07 19:51 | 51.40885 | 12.14677 | 1153 ft | 210 kts | 85° |
| 2026-05-07 19:51 | 51.40993 | 12.16990 | 881 ft | 209 kts | 85° |
| 2026-05-07 19:51 | 51.41094 | 12.19208 | 1188 ft | 189 kts | 88° |
| 2026-05-07 19:51 | 51.40647 | 12.21045 | 1817 ft | 186 kts | 138° |
| 2026-05-07 19:52 | 51.39401 | 12.21699 | 2138 ft | 203 kts | 186° |
| 2026-05-07 19:52 | 51.38108 | 12.20705 | 2284 ft | 215 kts | 217° |
| 2026-05-07 19:52 | 51.36940 | 12.19119 | 2345 ft | 222 kts | 227° |
| 2026-05-07 19:52 | 51.36313 | 12.16864 | 2377 ft | 227 kts | 258° |
| 2026-05-07 19:53 | 51.36142 | 12.14361 | 2389 ft | 232 kts | 266° |
| 2026-05-07 19:53 | 51.36064 | 12.11776 | 2396 ft | 234 kts | 266° |
| 2026-05-07 19:53 | 51.35964 | 12.09199 | 2397 ft | 225 kts | 266° |
| 2026-05-07 19:53 | 51.35856 | 12.06774 | 2397 ft | 214 kts | 265° |
| 2026-05-07 19:54 | 51.35746 | 12.04439 | 2401 ft | 208 kts | 265° |
| 2026-05-07 19:54 | 51.35636 | 12.02144 | 2404 ft | 206 kts | 265° |
| 2026-05-07 19:54 | 51.35286 | 11.99990 | 2406 ft | 202 kts | 233° |
| 2026-05-07 19:54 | 51.34140 | 11.98869 | 2414 ft | 202 kts | 187° |
| 2026-05-07 19:55 | 51.32829 | 11.99424 | 2414 ft | 203 kts | 141° |
| 2026-05-07 19:55 | 51.32172 | 12.01352 | 2414 ft | 204 kts | 94° |
| 2026-05-07 19:55 | 51.32603 | 12.03442 | 2412 ft | 204 kts | 47° |
| 2026-05-07 19:55 | 51.33852 | 12.04372 | 2411 ft | 204 kts | 0° |
| 2026-05-07 19:56 | 51.35144 | 12.03596 | 2412 ft | 201 kts | 322° |
| 2026-05-07 19:56 | 51.36223 | 12.02165 | 2406 ft | 202 kts | 318° |
| 2026-05-07 19:56 | 51.37262 | 12.00639 | 2403 ft | 203 kts | 316° |
| 2026-05-07 19:56 | 51.38318 | 11.99156 | 2397 ft | 200 kts | 330° |
| 2026-05-07 19:57 | 51.39629 | 11.98934 | 2398 ft | 185 kts | 20° |
| 2026-05-07 19:57 | 51.40439 | 12.00244 | 2396 ft | 160 kts | 76° |
| 2026-05-07 19:57 | 51.40517 | 12.01929 | 2404 ft | 166 kts | 89° |
| 2026-05-07 19:57 | 51.40516 | 12.04030 | 2425 ft | 206 kts | 90° |
| 2026-05-07 19:58 | 51.40497 | 12.06472 | 2206 ft | 231 kts | 89° |
| 2026-05-07 19:58 | 51.40605 | 12.09059 | 1886 ft | 226 kts | 84° |
| 2026-05-07 19:58 | 51.40738 | 12.11464 | 1559 ft | 208 kts | 85° |
| 2026-05-07 19:58 | 51.40841 | 12.13693 | 1258 ft | 194 kts | 86° |
| 2026-05-07 19:59 | 51.40934 | 12.15767 | 993 ft | 182 kts | 85° |
| 2026-05-07 19:59 | 51.41025 | 12.17726 | 763 ft | 171 kts | 85° |
| 2026-05-07 19:59 | 51.41110 | 12.19564 | 705 ft | 168 kts | 88° |
| 2026-05-07 19:59 | 51.40622 | 12.21259 | 1214 ft | 179 kts | 143° |
| 2026-05-07 20:00 | 51.39402 | 12.21707 | 1542 ft | 198 kts | 192° |
| 2026-05-07 20:00 | 51.38165 | 12.20601 | 1689 ft | 213 kts | 218° |
| 2026-05-07 20:00 | 51.37017 | 12.19047 | 1743 ft | 213 kts | 224° |
| 2026-05-07 20:00 | 51.36397 | 12.17105 | 1766 ft | 186 kts | 259° |
| 2026-05-07 20:01 | 51.36210 | 12.15154 | 1776 ft | 169 kts | 264° |
| 2026-05-07 20:01 | 51.36126 | 12.13358 | 1857 ft | 154 kts | 266° |
| 2026-05-07 20:01 | 51.36074 | 12.11548 | 1941 ft | 164 kts | 268° |
| 2026-05-07 20:01 | 51.36036 | 12.09786 | 1972 ft | 150 kts | 268° |
| 2026-05-07 20:02 | 51.36002 | 12.08146 | 1989 ft | 153 kts | 268° |
| 2026-05-07 20:02 | 51.35968 | 12.06375 | 2009 ft | 168 kts | 268° |
| 2026-05-07 20:02 | 51.36258 | 12.04618 | 2010 ft | 169 kts | 313° |
| 2026-05-07 20:02 | 51.37323 | 12.03964 | 2016 ft | 170 kts | 3° |
| 2026-05-07 20:03 | 51.38503 | 12.04171 | 2012 ft | 170 kts | 10° |
| 2026-05-07 20:03 | 51.39429 | 12.05232 | 2009 ft | 170 kts | 61° |
| 2026-05-07 20:03 | 51.39909 | 12.07009 | 2011 ft | 182 kts | 71° |
| 2026-05-07 20:03 | 51.40285 | 12.09119 | 1885 ft | 215 kts | 76° |
| 2026-05-07 20:04 | 51.40624 | 12.11588 | 1595 ft | 235 kts | 78° |
| 2026-05-07 20:04 | 51.40878 | 12.14104 | 1263 ft | 222 kts | 84° |
| 2026-05-07 20:04 | 51.40981 | 12.16480 | 943 ft | 205 kts | 86° |
| 2026-05-07 20:04 | 51.41062 | 12.18648 | 823 ft | 182 kts | 86° |
| 2026-05-07 20:05 | 51.41136 | 12.20546 | 791 ft | 160 kts | 86° |
| 2026-05-07 20:05 | 51.41202 | 12.22221 | 755 ft | 151 kts | 86° |
| 2026-05-07 20:05 | 51.41275 | 12.24026 | 1323 ft | 162 kts | 86° |
| 2026-05-07 20:05 | 51.41346 | 12.25799 | 2227 ft | 157 kts | 86° |
| 2026-05-07 20:06 | 51.41416 | 12.27517 | 3084 ft | 157 kts | 86° |
| 2026-05-07 20:06 | 51.41487 | 12.29271 | 3900 ft | 158 kts | 86° |
| 2026-05-07 20:06 | 51.41654 | 12.31023 | 4690 ft | 160 kts | 78° |
| 2026-05-07 20:06 | 51.41870 | 12.32785 | 5498 ft | 162 kts | 79° |
| 2026-05-07 20:07 | 51.42078 | 12.34538 | 6284 ft | 164 kts | 79° |
| 2026-05-07 20:07 | 51.42288 | 12.36317 | 7029 ft | 171 kts | 79° |
| 2026-05-07 20:07 | 51.42538 | 12.38418 | 7104 ft | 211 kts | 79° |
| 2026-05-07 20:07 | 51.42802 | 12.40636 | 7113 ft | 232 kts | 79° |
| 2026-05-07 20:08 | 51.43109 | 12.43210 | 7112 ft | 243 kts | 79° |
| 2026-05-07 20:08 | 51.43430 | 12.45903 | 7107 ft | 248 kts | 79° |
| 2026-05-07 20:08 | 51.43755 | 12.48634 | 7104 ft | 251 kts | 79° |
| 2026-05-07 20:08 | 51.44082 | 12.51384 | 7104 ft | 252 kts | 79° |
| 2026-05-07 20:09 | 51.44408 | 12.54139 | 7104 ft | 252 kts | 79° |
| 2026-05-07 20:09 | 51.44736 | 12.56880 | 7104 ft | 248 kts | 78° |
| 2026-05-07 20:09 | 51.45438 | 12.59364 | 7105 ft | 247 kts | 51° |
| 2026-05-07 20:10 | 51.48316 | 12.61481 | 7111 ft | 247 kts | 357° |
| 2026-05-07 20:10 | 51.49953 | 12.60713 | 7111 ft | 248 kts | 329° |
| 2026-05-07 20:10 | 51.51171 | 12.58798 | 7111 ft | 248 kts | 301° |
| 2026-05-07 20:10 | 51.51681 | 12.56185 | 7111 ft | 248 kts | 273° |
| 2026-05-07 20:11 | 51.51369 | 12.53521 | 7110 ft | 248 kts | 245° |
| 2026-05-07 20:11 | 51.50299 | 12.51384 | 7110 ft | 248 kts | 216° |
| 2026-05-07 20:11 | 51.48751 | 12.50227 | 7112 ft | 245 kts | 198° |
| 2026-05-07 20:11 | 51.47233 | 12.49396 | 7109 ft | 246 kts | 199° |
| 2026-05-07 20:12 | 51.45608 | 12.48490 | 7108 ft | 247 kts | 199° |
| 2026-05-07 20:12 | 51.43981 | 12.47576 | 7109 ft | 248 kts | 199° |
| 2026-05-07 20:12 | 51.42372 | 12.46674 | 7108 ft | 248 kts | 199° |
| 2026-05-07 20:12 | 51.40742 | 12.45759 | 7109 ft | 248 kts | 199° |
| 2026-05-07 20:13 | 51.39137 | 12.44857 | 7109 ft | 248 kts | 199° |
| 2026-05-07 20:13 | 51.37659 | 12.43523 | 7108 ft | 246 kts | 225° |
| 2026-05-07 20:13 | 51.36854 | 12.41141 | 7112 ft | 247 kts | 259° |
| 2026-05-07 20:13 | 51.37003 | 12.38437 | 7112 ft | 248 kts | 292° |
| 2026-05-07 20:14 | 51.38061 | 12.36310 | 7113 ft | 248 kts | 326° |
| 2026-05-07 20:14 | 51.39679 | 12.35467 | 7112 ft | 248 kts | 359° |
| 2026-05-07 20:14 | 51.41320 | 12.36191 | 7112 ft | 248 kts | 33° |
| 2026-05-07 20:14 | 51.42408 | 12.38128 | 7111 ft | 248 kts | 65° |
| 2026-05-07 20:15 | 51.42837 | 12.40700 | 7111 ft | 246 kts | 79° |
| 2026-05-07 20:15 | 51.43153 | 12.43404 | 7108 ft | 247 kts | 79° |
| 2026-05-07 20:15 | 51.43468 | 12.46119 | 7108 ft | 248 kts | 79° |
| 2026-05-07 20:15 | 51.43785 | 12.48840 | 7107 ft | 248 kts | 79° |
| 2026-05-07 20:16 | 51.44103 | 12.51561 | 7108 ft | 248 kts | 79° |
| 2026-05-07 20:16 | 51.44406 | 12.54280 | 7106 ft | 245 kts | 84° |
| 2026-05-07 20:16 | 51.44049 | 12.56939 | 6837 ft | 254 kts | 121° |
| 2026-05-07 20:16 | 51.42710 | 12.58782 | 6463 ft | 261 kts | 158° |
| 2026-05-07 20:17 | 51.40929 | 12.59231 | 6091 ft | 261 kts | 178° |
| 2026-05-07 20:17 | 51.39108 | 12.59248 | 5714 ft | 263 kts | 181° |
| 2026-05-07 20:17 | 51.37281 | 12.59168 | 5335 ft | 263 kts | 182° |
| 2026-05-07 20:17 | 51.35489 | 12.59055 | 4963 ft | 262 kts | 182° |
| 2026-05-07 20:18 | 51.33710 | 12.58658 | 4581 ft | 257 kts | 203° |
| 2026-05-07 20:18 | 51.32394 | 12.56814 | 4325 ft | 254 kts | 240° |
| 2026-05-07 20:18 | 51.31889 | 12.54174 | 4216 ft | 246 kts | 259° |
| 2026-05-07 20:18 | 51.31615 | 12.51476 | 4161 ft | 246 kts | 262° |
| 2026-05-07 20:19 | 51.31393 | 12.48777 | 4134 ft | 245 kts | 263° |
| 2026-05-07 20:19 | 51.31190 | 12.46079 | 4121 ft | 244 kts | 263° |
| 2026-05-07 20:19 | 51.30995 | 12.43388 | 4112 ft | 244 kts | 263° |
| 2026-05-07 20:19 | 51.30805 | 12.40731 | 3972 ft | 248 kts | 263° |
| 2026-05-07 20:20 | 51.30608 | 12.37940 | 3592 ft | 255 kts | 263° |
| 2026-05-07 20:20 | 51.30408 | 12.35120 | 3332 ft | 254 kts | 263° |
| 2026-05-07 20:20 | 51.30211 | 12.32337 | 3214 ft | 249 kts | 263° |
| 2026-05-07 20:20 | 51.30018 | 12.29610 | 3159 ft | 245 kts | 263° |
| 2026-05-07 20:21 | 51.29827 | 12.26914 | 3134 ft | 243 kts | 263° |
| 2026-05-07 20:21 | 51.29638 | 12.24245 | 3122 ft | 241 kts | 263° |
| 2026-05-07 20:21 | 51.29465 | 12.21813 | 3117 ft | 241 kts | 263° |
| 2026-05-07 20:21 | 51.29277 | 12.19160 | 3114 ft | 240 kts | 263° |
| 2026-05-07 20:22 | 51.29088 | 12.16511 | 3112 ft | 240 kts | 263° |
| 2026-05-07 20:22 | 51.28902 | 12.13898 | 3111 ft | 240 kts | 263° |
| 2026-05-07 20:22 | 51.28716 | 12.11286 | 3111 ft | 240 kts | 263° |
| 2026-05-07 20:22 | 51.28527 | 12.08640 | 3111 ft | 240 kts | 263° |
| 2026-05-07 20:23 | 51.28338 | 12.05996 | 3110 ft | 240 kts | 263° |
| 2026-05-07 20:23 | 51.28164 | 12.03359 | 3108 ft | 236 kts | 268° |
| 2026-05-07 20:23 | 51.28554 | 12.01057 | 3112 ft | 234 kts | 297° |
| 2026-05-07 20:23 | 51.29307 | 11.98971 | 3112 ft | 236 kts | 302° |
| 2026-05-07 20:24 | 51.30249 | 11.96998 | 3108 ft | 235 kts | 322° |
| 2026-05-07 20:24 | 51.31757 | 11.96044 | 3113 ft | 235 kts | 347° |
| 2026-05-07 20:24 | 51.33366 | 11.95546 | 3112 ft | 237 kts | 351° |
| 2026-05-07 20:24 | 51.34983 | 11.95143 | 3110 ft | 238 kts | 352° |
| 2026-05-07 20:25 | 51.36628 | 11.94768 | 3109 ft | 239 kts | 352° |
| 2026-05-07 20:25 | 51.38259 | 11.94557 | 3104 ft | 227 kts | 9° |
| 2026-05-07 20:25 | 51.39512 | 11.95671 | 3105 ft | 206 kts | 52° |
| 2026-05-07 20:25 | 51.39976 | 11.97731 | 3109 ft | 196 kts | 83° |
| 2026-05-07 20:26 | 51.40091 | 11.99930 | 3033 ft | 200 kts | 89° |
| 2026-05-07 20:26 | 51.40169 | 12.02107 | 2738 ft | 193 kts | 84° |
| 2026-05-07 20:26 | 51.40338 | 12.04218 | 2450 ft | 189 kts | 82° |
| 2026-05-07 20:26 | 51.40504 | 12.06285 | 2172 ft | 185 kts | 85° |
| 2026-05-07 20:27 | 51.40597 | 12.08298 | 1905 ft | 182 kts | 86° |